Flight Track Log - Related Links

Times and Time Zones

All times are in EDT time to prevent confusion due to time zone crossing. See the N521LL flight status page for this flight to view local times or setup timezone preferences in your user account.


Time Position Orientation Groundspeed Altitude Reporting Facility
EDT Latitude Longitude Course Direction KTS MPH feet Rate Location/Type
Fri 05:27:43 PM 27.9431 -97.1261 319° Northwest 249 287 6,200  Level Houston Center
Fri 05:28:38 PM 27.9853 -97.1675 319° Northwest 256 295 9,200 3,243 Climbing Houston Center
Fri 05:28:57 PM 27.9875 -97.1869 277° West 259 298 10,200 2,444 Climbing Houston Center
Fri 05:29:59 PM 27.9878 -97.2661 270° West 254 292 12,500 1,872 Climbing Houston Center
Fri 05:31:02 PM 27.9928 -97.3603 273° West 287 330 14,100 2,016 Climbing Houston Center
Fri 05:32:04 PM 28.0044 -97.4797 276° West 315 362 16,700 2,468 Climbing Houston Center
Fri 05:33:06 PM 28.0167 -97.5689 279° West 294 338 19,200 2,323 Climbing Houston Center
Fri 05:34:08 PM 28.0253 -97.6539 277° West 278 320 21,500 2,129 Climbing Houston Center
Fri 05:35:10 PM 28.0347 -97.7311 278° West 256 295 23,600 1,839 Climbing Houston Center
Fri 05:36:12 PM 28.0531 -97.8125 284° West 258 297 25,300 1,548 Climbing Houston Center
Fri 05:37:14 PM 28.0925 -97.8872 301° West 274 315 26,800 1,694 Climbing Houston Center
Fri 05:38:16 PM 28.1261 -97.9667 296° West 281 323 28,800 1,984 Climbing Houston Center
Fri 05:39:18 PM 28.1775 -98.0486 305° West 274 315 30,900 1,680 Climbing Houston Center
Fri 05:40:21 PM 28.2569 -98.0772 342° North 300 345 32,300 1,392 Climbing Houston Center
Fri 05:41:23 PM 28.3397 -98.0994 347° North 306 352 33,800 1,500 Climbing Houston Center
Fri 05:42:25 PM 28.4219 -98.1242 345° North 307 353 35,400 1,452 Climbing Houston Center
Fri 05:43:27 PM 28.5022 -98.1450 347° North 306 352 36,800 1,258 Climbing Houston Center
Fri 05:44:29 PM 28.5969 -98.1728 346° North 294 338 38,000 581 Climbing Houston Center
Fri 05:45:31 PM 28.6847 -98.1944 348° North 315 362 38,000  Level Houston Center
Fri 05:46:33 PM 28.7878 -98.2231 346° North 351 404 38,000  Level Houston Center
Fri 05:47:35 PM 28.8889 -98.2528 346° North 372 428 38,000  Level Houston Center
Fri 05:48:37 PM 29.0022 -98.2836 347° North 388 447 38,000  Level Houston Center
Fri 05:49:40 PM 29.1075 -98.3139 346° North 390 449 38,000  Level Houston Center
Fri 05:50:42 PM 29.2258 -98.3442 347° North 402 463 38,000  Level Houston Center
Fri 05:51:44 PM 29.3336 -98.3750 346° North 400 460 38,000  Level Houston Center
Fri 05:52:46 PM 29.4511 -98.4064 347° North 402 463 38,000  Level Houston Center
Fri 05:53:48 PM 29.5522 -98.4372 345° North 410 472 38,000  Level Houston Center
Fri 05:54:50 PM 29.6714 -98.4856 341° North 401 461 38,000  Level Houston Center
Fri 05:55:52 PM 29.7603 -98.5547 326° Northwest 387 445 38,000  Level Houston Center
Fri 05:56:54 PM 29.8564 -98.6294 326° Northwest 388 447 38,000  Level Houston Center
Fri 05:57:56 PM 29.9447 -98.7014 325° Northwest 388 447 38,000  Level Houston Center
Fri 05:58:58 PM 30.0344 -98.7711 326° Northwest 389 448 38,000  Level Houston Center
Fri 06:00:00 PM 30.1292 -98.8497 324° Northwest 389 448 38,000  Level Houston Center
Fri 06:01:03 PM 30.2275 -98.9258 326° Northwest 394 453 38,000  Level Houston Center
Fri 06:02:05 PM 30.3031 -98.9894 324° Northwest 387 445 38,000  Level Houston Center
Fri 06:03:07 PM 30.4092 -99.0750 325° Northwest 392 451 38,000  Level Houston Center
Fri 06:04:09 PM 30.5022 -99.1475 326° Northwest 389 448 38,000  Level Houston Center
Fri 06:05:11 PM 30.5903 -99.2200 325° Northwest 390 449 38,000  Level Houston Center
Fri 06:06:13 PM 30.6786 -99.2900 326° Northwest 387 445 38,000  Level Houston Center
Fri 06:07:15 PM 30.7658 -99.3639 324° Northwest 388 447 38,000  Level Houston Center
Fri 06:08:17 PM 30.8547 -99.4339 326° Northwest 387 445 38,000  Level Houston Center
Fri 06:09:19 PM 30.9594 -99.5219 324° Northwest 387 445 38,000  Level Houston Center
Fri 06:10:22 PM 31.0475 -99.5936 325° Northwest 388 447 38,000  Level Houston Center
Fri 06:11:24 PM 31.1342 -99.6658 325° Northwest 385 443 38,000  Level Houston Center
Fri 06:12:26 PM 31.2225 -99.7367 326° Northwest 385 443 38,000  Level Houston Center
Fri 06:13:28 PM 31.3094 -99.8108 324° Northwest 387 445 38,000  Level Houston Center
Fri 06:14:06 PM 31.3794 -99.8636 327° Northwest 390 449 38,000  Level Fort Worth Center
Fri 06:15:06 PM 31.4553 -99.9314 323° Northwest 385 443 38,000  Level Fort Worth Center
Fri 06:16:06 PM 31.5539 -100.0144 324° Northwest 392 451 38,000  Level Fort Worth Center
Fri 06:17:06 PM 31.6461 -100.0878 326° Northwest 397 457 38,000  Level Fort Worth Center
Fri 06:18:07 PM 31.7158 -100.1508 322° Northwest 381 438 38,000  Level Fort Worth Center
Fri 06:19:06 PM 31.8039 -100.2219 326° Northwest 381 438 38,000  Level Fort Worth Center
Fri 06:20:06 PM 31.8961 -100.3008 324° Northwest 381 438 38,000  Level Fort Worth Center
Fri 06:21:06 PM 31.9822 -100.3719 325° Northwest 381 438 38,000  Level Fort Worth Center
Fri 06:22:06 PM 32.0681 -100.4458 324° Northwest 381 438 38,000  Level Fort Worth Center
Fri 06:23:07 PM 32.1542 -100.5175 325° Northwest 381 438 38,000  Level Fort Worth Center
Fri 06:24:06 PM 32.2378 -100.5917 323° Northwest 381 438 38,000  Level Fort Worth Center
Fri 06:25:06 PM 32.3236 -100.6608 326° Northwest 381 438 38,000  Level Fort Worth Center
Fri 06:26:07 PM 32.4072 -100.7353 323° Northwest 381 438 38,000  Level Fort Worth Center
Fri 06:27:06 PM 32.4931 -100.8050 326° Northwest 381 438 38,000 -303 Level Fort Worth Center
Fri 06:28:06 PM 32.5767 -100.8772 324° Northwest 375 432 37,400 -1,700 Descending Fort Worth Center
Fri 06:29:06 PM 32.6564 -100.9442 325° Northwest 370 426 34,600 -2,900 Descending Fort Worth Center
Fri 06:30:06 PM 32.7417 -101.0194 323° Northwest 370 426 31,600 -3,150 Descending Fort Worth Center
Fri 06:31:06 PM 32.8294 -101.0944 324° Northwest 383 441 28,300 -3,150 Descending Fort Worth Center
Fri 06:32:06 PM 32.9128 -101.1672 324° Northwest 383 441 25,300 -2,864 Descending Fort Worth Center
Fri 06:32:34 PM 32.9472 -101.1983 323° Northwest 383 441 24,100 -3,000 Descending Fort Worth Center
Fri 06:33:04 PM 32.9961 -101.2400 324° Northwest 376 433 22,400 -3,099 Descending Fort Worth Center
Fri 06:34:05 PM 33.0797 -101.3081 326° Northwest 366 421 19,400 -2,975 Descending Fort Worth Center
Fri 06:35:05 PM 33.1611 -101.3689 328° Northwest 344 396 16,400 -2,975 Descending Fort Worth Center
Fri 06:36:06 PM 33.2431 -101.4222 331° Northwest 334 384 13,400 -2,876 Descending Fort Worth Center
Fri 06:37:06 PM 33.3042 -101.4697 327° Northwest 303 349 10,600 -2,900 Descending Fort Worth Center
Fri 06:38:06 PM 33.3775 -101.5203 330° Northwest 277 319 7,600 -1,967 Descending Fort Worth Center
Fri 06:39:08 PM 33.4386 -101.5681 327° Northwest 266 306 6,600 -750 Descending Fort Worth Center
Fri 06:40:06 PM 33.5019 -101.6083 332° Northwest 260 299 6,100 -411 Descending Fort Worth Center
Fri 06:40:21 PM 33.5142 -101.6214 318° Northwest 258 297 6,100 -200 Level Fort Worth Center
Fri 06:41:06 PM 33.5528 -101.6481 330° Northwest 249 287 5,900 -100 Descending Fort Worth Center
Fri 06:41:21 PM 33.5647 -101.6661 308° West 228 262 6,000  Climbing Fort Worth Center
Fri 06:42:06 PM 33.6100 -101.6883 338° Northwest 229 264 5,900 -295 Descending Fort Worth Center
Fri 06:42:22 PM 33.6222 -101.6964 331° Northwest 197 227 5,700 -1,105 Descending Fort Worth Center
Fri 06:43:22 PM 33.6586 -101.7256 326° Northwest 149 171 4,500 -1,038 Descending Fort Worth Center
Fri 06:44:06 PM 33.6619 -101.7531 278° West 132 152 3,900 -885 Descending Fort Worth Center
Fri 06:44:23 PM 33.6592 -101.7681 257° West 109 125 3,600 -500 Descending Fort Worth Center
Fri 06:45:06 PM 33.6628 -101.7906 281° West 118 136 3,400 -233 Descending Fort Worth Center
Fri 06:46:06 PM 33.6619 -101.8131 267° West 106 122 3,200 -100 Descending Fort Worth Center
Fri 06:47:06 PM 33.6614 -101.8256 267° West 60 69 3,200  Level Fort Worth Center

Login

Don't have an account? Register now (free) for customized features, flight alerts, and more!